createdAt,value
2023-03-18T02:02:11.157Z,101075.7
2023-03-18T02:04:49.433Z,101081.9
2023-03-18T02:09:19.511Z,101081.9
2023-03-18T02:09:49.041Z,101070.12
2023-03-18T02:13:26.432Z,101070.12
2023-03-18T06:28:41.683Z,101039.25
2023-03-18T06:28:49.872Z,101039.25
2023-03-18T06:33:49.839Z,101045.51
2023-03-18T06:38:49.962Z,101046.3
2023-03-18T06:43:50.816Z,101039.07
2023-03-18T06:48:49.579Z,101040.88
2023-03-18T06:49:57.690Z,101040.88
2023-03-18T07:19:42.576Z,101031.44
2023-03-18T07:21:32.962Z,101031.44
2023-03-18T07:26:33.376Z,101044.83
2023-03-18T07:31:32.877Z,101037.90000000001
2023-03-18T07:31:47.815Z,101037.90000000001
2023-03-18T07:36:33.504Z,101030.39
2023-03-18T07:41:33.003Z,101029.63
2023-03-18T07:43:39.133Z,101026.59
2023-03-18T07:46:32.987Z,101026.59
2023-03-18T07:54:38.563Z,101034.64
2023-03-18T07:55:22.148Z,101034.64
2023-03-18T08:00:22.261Z,101019.28
2023-03-18T08:05:22.193Z,101027.44
2023-03-18T08:07:45.860Z,101027.44
2023-03-18T08:10:21.936Z,101019.09000000001
2023-03-18T08:13:42.598Z,101019.09000000001
2023-03-18T08:15:23.285Z,101028.95999999999
2023-03-18T08:20:22.237Z,101019.87000000001
2023-03-18T08:25:22.770Z,101028.99
2023-03-18T08:30:24.348Z,101011.67
2023-03-18T08:35:22.494Z,101020.89
2023-03-18T08:36:45.360Z,101020.89
2023-03-18T08:40:22.224Z,101012.01999999999
2023-03-18T08:45:21.852Z,101001.03
2023-03-18T08:50:27.376Z,101001.17
2023-03-18T08:51:45.955Z,101001.17
2023-03-18T08:55:22.217Z,100992.98999999999
2023-03-18T09:00:22.194Z,100989.79000000001
2023-03-18T09:05:23.072Z,100989.87
2023-03-18T09:10:21.805Z,100972.26000000001
2023-03-18T09:15:22.031Z,100972.73
2023-03-18T09:20:22.153Z,100977.84
2023-03-18T09:25:21.850Z,100981.33
2023-03-18T09:30:21.925Z,100969.5
2023-03-18T09:31:21.107Z,100969.5
2023-03-18T10:16:31.159Z,100948.12
2023-03-18T10:19:44.393Z,100948.12
2023-03-18T10:22:52.326Z,100942.33
2023-03-18T10:24:47.864Z,100942.33
2023-03-18T10:29:44.270Z,100932.2
2023-03-18T10:34:48.289Z,100927.4
2023-03-18T10:37:41.443Z,100936.69
2023-03-18T10:39:40.964Z,100936.69
2023-03-18T10:44:41.052Z,100936.86
2023-03-18T10:49:43.773Z,100928.68999999999
2023-03-18T10:54:41.537Z,100927.48
2023-03-18T10:59:43.615Z,100919.16
2023-03-18T11:00:32.067Z,100919.16
2023-03-18T11:05:49.570Z,100917.6
2023-03-18T11:09:31.097Z,100917.6
2023-03-18T11:14:30.335Z,100915.58
2023-03-18T11:16:20.407Z,100907.39
2023-03-18T11:19:36.471Z,100907.39
2023-03-18T11:24:35.234Z,100901.93000000001
2023-03-18T11:29:32.255Z,100894.26
2023-03-18T11:34:30.040Z,100879.9
2023-03-18T11:39:30.258Z,100886.28
2023-03-18T11:44:30.487Z,100873.08
2023-03-18T11:47:02.368Z,100876.73
2023-03-18T11:49:28.747Z,100876.73
2023-03-18T11:54:44.880Z,100864.14
2023-03-18T11:59:36.271Z,100865.52
2023-03-18T12:04:45.118Z,100866.41
2023-03-18T12:09:37.513Z,100862.91
2023-03-18T12:14:34.337Z,100859.04000000001
2023-03-18T12:19:45.935Z,100860.92
2023-03-18T12:24:47.624Z,100855.36
2023-03-18T12:29:43.878Z,100856.48999999999
2023-03-18T12:34:40.131Z,100860.06
2023-03-18T12:39:48.044Z,100849.49
2023-03-18T12:39:57.281Z,100849.49
2023-03-18T12:40:05.129Z,100849.49
2023-03-18T12:44:38.489Z,100845.20999999999
2023-03-18T12:49:33.862Z,100845.64
2023-03-18T12:53:02.081Z,100843.59
2023-03-18T12:54:31.853Z,100843.59
2023-03-18T12:59:34.467Z,100838.03
2023-03-18T13:04:32.325Z,100832.64
2023-03-18T13:09:35.093Z,100826.17
2023-03-18T13:14:33.926Z,100819.59000000001
2023-03-18T13:19:28.352Z,100828.28
2023-03-18T13:24:44.920Z,100828.03
2023-03-18T13:29:36.127Z,100820.53
2023-03-18T13:34:38.761Z,100817.62999999999
2023-03-18T13:39:43.247Z,100811.64
2023-03-18T13:44:34.795Z,100808.81000000001
2023-03-18T13:49:30.122Z,100798.28
2023-03-18T13:54:33.909Z,100792.48999999999
2023-03-18T13:59:46.772Z,100786.11
2023-03-18T14:01:28.816Z,100793.82
2023-03-18T14:04:31.124Z,100793.82
2023-03-18T14:09:33.948Z,100792.88
2023-03-18T14:14:47.535Z,100785.49
2023-03-18T14:15:35.430Z,100785.49
2023-03-18T14:19:31.464Z,100779.83
2023-03-18T14:24:28.380Z,100778.19
2023-03-18T14:27:19.582Z,100784.36
2023-03-18T14:29:34.464Z,100784.36
2023-03-18T14:33:33.542Z,100771.8
2023-03-18T14:34:31.130Z,100771.8
2023-03-18T14:39:32.941Z,100757.84
2023-03-18T14:44:39.708Z,100750.47
2023-03-18T14:49:35.416Z,100754.89
2023-03-18T14:54:32.787Z,100749.06
2023-03-18T14:59:27.923Z,100747.22
2023-03-18T15:04:28.187Z,100750.03
2023-03-18T15:09:31.525Z,100746.87
2023-03-18T15:14:31.177Z,100749.56
2023-03-18T15:19:28.852Z,100744.58
2023-03-18T15:23:26.073Z,100740.20000000001
2023-03-18T15:24:27.598Z,100740.20000000001
2023-03-18T15:29:32.169Z,100746.34999999999
2023-03-18T15:34:29.765Z,100738.69
2023-03-18T15:39:33.264Z,100749.63
2023-03-18T15:44:30.208Z,100753.37
2023-03-18T15:49:27.906Z,100741.85
2023-03-18T15:54:37.593Z,100747.45
2023-03-18T15:59:30.106Z,100738.86
2023-03-18T16:04:29.915Z,100743.64
2023-03-18T16:09:28.345Z,100754.16
2023-03-18T16:14:35.215Z,100752.25
2023-03-18T16:19:28.687Z,100758.4
2023-03-18T16:24:27.751Z,100754.85
2023-03-18T16:29:31.097Z,100756.47
2023-03-18T16:34:28.041Z,100757.7
2023-03-18T16:39:34.343Z,100762.42
2023-03-18T16:43:55.509Z,100770.95000000001
2023-03-18T16:44:27.499Z,100770.95000000001
2023-03-18T16:49:30.265Z,100776.57
2023-03-18T16:54:30.580Z,100780.35
2023-03-18T16:59:29.499Z,100782.78
2023-03-18T17:04:30.179Z,100789.4
2023-03-18T17:09:28.013Z,100789.48000000001
2023-03-18T17:14:32.828Z,100791.24
2023-03-18T17:19:28.345Z,100790.26
2023-03-18T17:24:27.559Z,100795.34
2023-03-18T17:29:29.449Z,100796.26
2023-03-18T17:34:22.989Z,100796.64
2023-03-18T17:34:28.118Z,100796.64
2023-03-18T17:39:27.550Z,100803.15000000001
2023-03-18T17:44:29.900Z,100809.5
2023-03-18T17:49:27.518Z,100810.46
2023-03-18T17:54:30.536Z,100812.23
2023-03-18T17:59:27.933Z,100810.67
2023-03-18T18:04:28.734Z,100806.87000000001
2023-03-18T18:09:27.505Z,100805.42
2023-03-18T18:14:31.125Z,100803.33
2023-03-18T18:19:27.910Z,100798.69
2023-03-18T18:24:29.823Z,100793.89
2023-03-18T18:29:28.395Z,100791.92
2023-03-18T18:34:27.561Z,100788.92
2023-03-18T18:39:27.690Z,100793.52
2023-03-18T18:42:26.581Z,100793.26999999999
2023-03-18T19:35:57.803Z,100796.64
2023-03-18T19:36:19.582Z,100796.64
2023-03-18T19:41:08.691Z,100803.52
2023-03-18T19:46:13.372Z,100805.52
2023-03-18T19:51:14.066Z,100801.31
2023-03-18T19:56:23.311Z,100796.19
2023-03-18T20:01:08.703Z,100795.62
2023-03-18T20:06:08.817Z,100795.51
2023-03-18T20:10:45.741Z,100791.24
2023-03-18T20:11:11.121Z,100791.24
2023-03-18T20:16:12.962Z,100790.91
2023-03-18T20:21:16.377Z,100793.0
2023-03-18T20:26:08.852Z,100794.06
2023-03-18T20:29:57.727Z,100794.06
2023-03-18T20:31:09.002Z,100792.62999999999
2023-03-18T20:36:15.822Z,100792.40999999999
2023-03-18T20:37:43.454Z,100792.40999999999
2023-03-18T20:41:13.707Z,100790.47
2023-03-18T20:46:11.920Z,100790.31
2023-03-18T20:49:57.219Z,100790.31
2023-03-18T20:51:17.958Z,100794.42
2023-03-18T20:56:08.571Z,100796.98
2023-03-18T21:01:11.616Z,100790.84
2023-03-18T21:06:11.832Z,100794.06
2023-03-18T21:11:20.215Z,100792.33
2023-03-18T21:16:13.040Z,100793.09
2023-03-18T21:21:18.058Z,100794.55
2023-03-18T21:26:08.617Z,100791.01000000001
2023-03-18T21:31:22.144Z,100785.1
2023-03-18T21:36:09.242Z,100786.06
2023-03-18T21:37:53.019Z,100786.06
2023-03-18T21:39:43.308Z,100786.06
2023-03-18T22:24:50.896Z,100782.17
2023-03-18T22:29:12.095Z,100785.65
2023-03-18T22:34:20.942Z,100787.13
2023-03-18T22:39:12.231Z,100785.20999999999
2023-03-18T22:44:18.937Z,100789.89
2023-03-18T22:49:12.055Z,100786.0
2023-03-18T22:54:16.774Z,100793.40999999999
2023-03-18T22:55:58.655Z,100793.40999999999
2023-03-18T22:59:13.345Z,100790.23999999999
2023-03-18T23:03:24.992Z,100790.23999999999
2023-03-18T23:04:12.053Z,100788.01
2023-03-18T23:09:12.383Z,100787.36
2023-03-18T23:14:12.046Z,100789.95
2023-03-18T23:19:12.085Z,100788.61
2023-03-18T23:24:15.064Z,100788.67
2023-03-18T23:29:13.675Z,100790.09
2023-03-18T23:30:18.303Z,100790.09
2023-03-18T23:34:12.224Z,100789.70000000001
2023-03-18T23:36:10.095Z,100789.70000000001
